sensor_id;sensor_type;location;lat;lon;timestamp;P1;durP1;ratioP1;P2;durP2;ratioP2
22030;SDS011;11179;52.106;21.024;2023-05-10T00:01:32;15.47;;;7.77;;
22030;SDS011;11179;52.106;21.024;2023-05-10T00:03:58;15.57;;;7.40;;
22030;SDS011;11179;52.106;21.024;2023-05-10T00:06:23;17.50;;;8.43;;
22030;SDS011;11179;52.106;21.024;2023-05-10T00:08:49;17.03;;;8.23;;
22030;SDS011;11179;52.106;21.024;2023-05-10T00:11:14;17.27;;;7.50;;
22030;SDS011;11179;52.106;21.024;2023-05-10T00:13:39;16.10;;;7.50;;
22030;SDS011;11179;52.106;21.024;2023-05-10T00:16:05;16.40;;;7.00;;
22030;SDS011;11179;52.106;21.024;2023-05-10T00:18:30;21.00;;;8.07;;
22030;SDS011;11179;52.106;21.024;2023-05-10T00:20:56;16.80;;;6.93;;
22030;SDS011;11179;52.106;21.024;2023-05-10T00:23:21;18.00;;;7.60;;
22030;SDS011;11179;52.106;21.024;2023-05-10T00:25:46;15.73;;;7.07;;
22030;SDS011;11179;52.106;21.024;2023-05-10T00:28:11;13.57;;;6.93;;
22030;SDS011;11179;52.106;21.024;2023-05-10T00:30:37;24.40;;;7.23;;
22030;SDS011;11179;52.106;21.024;2023-05-10T00:33:02;16.10;;;8.10;;
22030;SDS011;11179;52.106;21.024;2023-05-10T00:35:28;15.37;;;6.80;;
22030;SDS011;11179;52.106;21.024;2023-05-10T00:37:53;14.77;;;7.57;;
22030;SDS011;11179;52.106;21.024;2023-05-10T00:40:18;19.37;;;7.47;;
22030;SDS011;11179;52.106;21.024;2023-05-10T00:42:44;14.27;;;7.87;;
22030;SDS011;11179;52.106;21.024;2023-05-10T00:45:09;15.90;;;7.63;;
22030;SDS011;11179;52.106;21.024;2023-05-10T00:47:35;13.97;;;6.40;;
22030;SDS011;11179;52.106;21.024;2023-05-10T00:50:00;13.20;;;6.30;;
22030;SDS011;11179;52.106;21.024;2023-05-10T00:52:27;14.43;;;6.03;;
22030;SDS011;11179;52.106;21.024;2023-05-10T00:54:54;12.70;;;6.63;;
22030;SDS011;11179;52.106;21.024;2023-05-10T00:57:20;14.80;;;6.63;;
22030;SDS011;11179;52.106;21.024;2023-05-10T00:59:46;14.40;;;6.90;;
22030;SDS011;11179;52.106;21.024;2023-05-10T01:02:11;14.63;;;6.30;;
22030;SDS011;11179;52.106;21.024;2023-05-10T01:04:38;18.53;;;7.10;;
22030;SDS011;11179;52.106;21.024;2023-05-10T01:07:04;14.83;;;6.73;;
22030;SDS011;11179;52.106;21.024;2023-05-10T01:09:31;15.87;;;6.30;;
22030;SDS011;11179;52.106;21.024;2023-05-10T01:11:57;12.90;;;6.77;;
22030;SDS011;11179;52.106;21.024;2023-05-10T01:14:23;12.83;;;6.70;;
22030;SDS011;11179;52.106;21.024;2023-05-10T01:16:50;14.17;;;6.30;;
22030;SDS011;11179;52.106;21.024;2023-05-10T01:19:24;16.60;;;7.10;;
22030;SDS011;11179;52.106;21.024;2023-05-10T01:32:15;15.20;;;6.60;;
22030;SDS011;11179;52.106;21.024;2023-05-10T01:40:35;12.50;;;6.50;;
22030;SDS011;11179;52.106;21.024;2023-05-10T01:43:05;11.90;;;5.80;;
22030;SDS011;11179;52.106;21.024;2023-05-10T01:50:36;14.03;;;6.50;;
22030;SDS011;11179;52.106;21.024;2023-05-10T01:53:06;11.97;;;6.57;;
22030;SDS011;11179;52.106;21.024;2023-05-10T01:55:35;12.67;;;6.67;;
22030;SDS011;11179;52.106;21.024;2023-05-10T01:58:08;13.50;;;6.73;;
22030;SDS011;11179;52.106;21.024;2023-05-10T02:00:40;13.07;;;6.67;;
22030;SDS011;11179;52.106;21.024;2023-05-10T02:03:08;12.27;;;6.70;;
22030;SDS011;11179;52.106;21.024;2023-05-10T02:05:36;14.03;;;6.90;;
22030;SDS011;11179;52.106;21.024;2023-05-10T02:08:03;13.37;;;6.30;;
22030;SDS011;11179;52.106;21.024;2023-05-10T02:10:31;11.80;;;6.37;;
22030;SDS011;11179;52.106;21.024;2023-05-10T02:12:58;13.10;;;7.07;;
22030;SDS011;11179;52.106;21.024;2023-05-10T02:15:24;16.37;;;6.83;;
22030;SDS011;11179;52.106;21.024;2023-05-10T02:17:52;12.50;;;6.50;;
22030;SDS011;11179;52.106;21.024;2023-05-10T02:20:20;15.30;;;7.03;;
22030;SDS011;11179;52.106;21.024;2023-05-10T02:22:48;13.93;;;7.30;;
22030;SDS011;11179;52.106;21.024;2023-05-10T02:25:15;13.20;;;6.37;;
22030;SDS011;11179;52.106;21.024;2023-05-10T02:27:44;25.02;;;7.30;;
22030;SDS011;11179;52.106;21.024;2023-05-10T02:30:11;12.20;;;6.43;;
22030;SDS011;11179;52.106;21.024;2023-05-10T02:32:37;14.00;;;6.87;;
22030;SDS011;11179;52.106;21.024;2023-05-10T02:35:04;18.50;;;7.53;;
22030;SDS011;11179;52.106;21.024;2023-05-10T02:37:31;17.73;;;7.60;;
22030;SDS011;11179;52.106;21.024;2023-05-10T02:39:57;14.07;;;6.70;;
22030;SDS011;11179;52.106;21.024;2023-05-10T02:42:24;12.00;;;6.57;;
22030;SDS011;11179;52.106;21.024;2023-05-10T02:44:52;17.60;;;6.53;;
22030;SDS011;11179;52.106;21.024;2023-05-10T02:47:21;15.93;;;7.50;;
22030;SDS011;11179;52.106;21.024;2023-05-10T02:49:47;15.40;;;6.90;;
22030;SDS011;11179;52.106;21.024;2023-05-10T02:52:14;13.57;;;6.23;;
22030;SDS011;11179;52.106;21.024;2023-05-10T02:54:44;15.17;;;6.90;;
22030;SDS011;11179;52.106;21.024;2023-05-10T02:57:13;14.50;;;6.90;;
22030;SDS011;11179;52.106;21.024;2023-05-10T02:59:43;14.47;;;6.43;;
22030;SDS011;11179;52.106;21.024;2023-05-10T03:02:09;12.07;;;6.27;;
22030;SDS011;11179;52.106;21.024;2023-05-10T03:04:36;16.53;;;7.20;;
22030;SDS011;11179;52.106;21.024;2023-05-10T03:07:01;16.20;;;6.50;;
22030;SDS011;11179;52.106;21.024;2023-05-10T03:09:27;10.10;;;5.53;;
22030;SDS011;11179;52.106;21.024;2023-05-10T03:12:00;15.60;;;6.23;;
22030;SDS011;11179;52.106;21.024;2023-05-10T03:20:03;15.17;;;7.00;;
22030;SDS011;11179;52.106;21.024;2023-05-10T03:22:34;16.10;;;6.70;;
22030;SDS011;11179;52.106;21.024;2023-05-10T03:25:05;11.90;;;6.10;;
22030;SDS011;11179;52.106;21.024;2023-05-10T03:27:33;11.97;;;6.10;;
22030;SDS011;11179;52.106;21.024;2023-05-10T03:30:13;18.73;;;7.33;;
22030;SDS011;11179;52.106;21.024;2023-05-10T03:32:39;13.90;;;5.97;;
22030;SDS011;11179;52.106;21.024;2023-05-10T03:35:08;11.30;;;6.00;;
22030;SDS011;11179;52.106;21.024;2023-05-10T03:37:34;14.83;;;6.67;;
22030;SDS011;11179;52.106;21.024;2023-05-10T03:39:59;15.23;;;5.97;;
22030;SDS011;11179;52.106;21.024;2023-05-10T03:42:25;14.70;;;7.13;;
22030;SDS011;11179;52.106;21.024;2023-05-10T03:44:50;12.67;;;6.93;;
22030;SDS011;11179;52.106;21.024;2023-05-10T03:47:15;16.10;;;6.70;;
22030;SDS011;11179;52.106;21.024;2023-05-10T03:49:41;12.80;;;5.80;;
22030;SDS011;11179;52.106;21.024;2023-05-10T03:52:06;13.90;;;6.17;;
22030;SDS011;11179;52.106;21.024;2023-05-10T03:54:32;15.40;;;5.90;;
22030;SDS011;11179;52.106;21.024;2023-05-10T03:56:57;11.47;;;5.43;;
22030;SDS011;11179;52.106;21.024;2023-05-10T03:59:22;16.73;;;6.30;;
22030;SDS011;11179;52.106;21.024;2023-05-10T04:01:48;10.70;;;5.53;;
22030;SDS011;11179;52.106;21.024;2023-05-10T04:04:13;14.80;;;5.93;;
22030;SDS011;11179;52.106;21.024;2023-05-10T04:06:38;11.20;;;5.57;;
22030;SDS011;11179;52.106;21.024;2023-05-10T04:09:04;13.43;;;5.90;;
22030;SDS011;11179;52.106;21.024;2023-05-10T04:11:29;13.27;;;6.67;;
22030;SDS011;11179;52.106;21.024;2023-05-10T04:13:55;15.40;;;5.60;;
22030;SDS011;11179;52.106;21.024;2023-05-10T04:16:20;10.80;;;4.90;;
22030;SDS011;11179;52.106;21.024;2023-05-10T04:18:45;10.80;;;5.03;;
22030;SDS011;11179;52.106;21.024;2023-05-10T04:21:11;12.30;;;5.90;;
22030;SDS011;11179;52.106;21.024;2023-05-10T04:23:38;13.40;;;5.40;;
22030;SDS011;11179;52.106;21.024;2023-05-10T04:26:04;11.93;;;5.47;;
22030;SDS011;11179;52.106;21.024;2023-05-10T04:28:29;19.50;;;6.17;;
22030;SDS011;11179;52.106;21.024;2023-05-10T04:31:01;11.30;;;5.97;;
22030;SDS011;11179;52.106;21.024;2023-05-10T04:33:28;14.77;;;5.87;;
22030;SDS011;11179;52.106;21.024;2023-05-10T04:35:53;12.93;;;6.10;;
22030;SDS011;11179;52.106;21.024;2023-05-10T04:38:19;16.40;;;6.07;;
22030;SDS011;11179;52.106;21.024;2023-05-10T04:40:44;14.73;;;5.70;;
22030;SDS011;11179;52.106;21.024;2023-05-10T04:43:09;14.20;;;6.50;;
22030;SDS011;11179;52.106;21.024;2023-05-10T04:45:35;11.40;;;5.70;;
22030;SDS011;11179;52.106;21.024;2023-05-10T04:48:00;11.63;;;5.17;;
22030;SDS011;11179;52.106;21.024;2023-05-10T04:50:25;10.67;;;5.23;;
22030;SDS011;11179;52.106;21.024;2023-05-10T04:52:50;11.33;;;5.70;;
22030;SDS011;11179;52.106;21.024;2023-05-10T04:55:16;10.50;;;4.60;;
22030;SDS011;11179;52.106;21.024;2023-05-10T04:57:41;11.87;;;5.77;;
22030;SDS011;11179;52.106;21.024;2023-05-10T05:00:06;10.80;;;5.77;;
22030;SDS011;11179;52.106;21.024;2023-05-10T05:02:32;13.73;;;5.73;;
22030;SDS011;11179;52.106;21.024;2023-05-10T05:04:57;10.73;;;5.63;;
22030;SDS011;11179;52.106;21.024;2023-05-10T05:07:23;10.37;;;5.37;;
22030;SDS011;11179;52.106;21.024;2023-05-10T05:09:48;20.80;;;6.50;;
22030;SDS011;11179;52.106;21.024;2023-05-10T05:12:13;16.07;;;5.10;;
22030;SDS011;11179;52.106;21.024;2023-05-10T05:14:39;11.67;;;5.70;;
22030;SDS011;11179;52.106;21.024;2023-05-10T05:17:06;12.53;;;5.23;;
22030;SDS011;11179;52.106;21.024;2023-05-10T05:19:31;11.17;;;5.10;;
22030;SDS011;11179;52.106;21.024;2023-05-10T05:21:57;10.73;;;4.20;;
22030;SDS011;11179;52.106;21.024;2023-05-10T05:24:22;15.40;;;5.50;;
22030;SDS011;11179;52.106;21.024;2023-05-10T05:26:48;10.20;;;4.93;;
22030;SDS011;11179;52.106;21.024;2023-05-10T05:29:13;10.77;;;5.10;;
22030;SDS011;11179;52.106;21.024;2023-05-10T05:31:39;20.73;;;5.53;;
22030;SDS011;11179;52.106;21.024;2023-05-10T05:34:04;13.37;;;4.90;;
22030;SDS011;11179;52.106;21.024;2023-05-10T05:36:29;9.60;;;4.00;;
22030;SDS011;11179;52.106;21.024;2023-05-10T05:38:56;11.60;;;5.07;;
22030;SDS011;11179;52.106;21.024;2023-05-10T05:41:22;11.83;;;4.63;;
22030;SDS011;11179;52.106;21.024;2023-05-10T05:43:48;11.43;;;4.57;;
22030;SDS011;11179;52.106;21.024;2023-05-10T05:46:14;10.90;;;4.33;;
22030;SDS011;11179;52.106;21.024;2023-05-10T05:48:39;12.07;;;4.77;;
22030;SDS011;11179;52.106;21.024;2023-05-10T05:51:05;11.97;;;4.60;;
22030;SDS011;11179;52.106;21.024;2023-05-10T05:53:30;16.40;;;5.40;;
22030;SDS011;11179;52.106;21.024;2023-05-10T05:55:57;9.90;;;4.23;;
22030;SDS011;11179;52.106;21.024;2023-05-10T05:58:23;9.87;;;4.53;;
22030;SDS011;11179;52.106;21.024;2023-05-10T06:00:49;10.23;;;4.40;;
22030;SDS011;11179;52.106;21.024;2023-05-10T06:03:15;10.23;;;4.30;;
22030;SDS011;11179;52.106;21.024;2023-05-10T06:05:40;12.33;;;5.20;;
22030;SDS011;11179;52.106;21.024;2023-05-10T06:08:06;13.13;;;4.40;;
22030;SDS011;11179;52.106;21.024;2023-05-10T06:10:31;10.13;;;4.20;;
22030;SDS011;11179;52.106;21.024;2023-05-10T06:12:56;8.53;;;4.00;;
22030;SDS011;11179;52.106;21.024;2023-05-10T06:15:22;7.90;;;3.63;;
22030;SDS011;11179;52.106;21.024;2023-05-10T06:17:47;12.53;;;4.60;;
22030;SDS011;11179;52.106;21.024;2023-05-10T06:20:14;13.27;;;6.13;;
22030;SDS011;11179;52.106;21.024;2023-05-10T06:22:40;16.20;;;4.53;;
22030;SDS011;11179;52.106;21.024;2023-05-10T06:25:05;8.70;;;3.90;;
22030;SDS011;11179;52.106;21.024;2023-05-10T06:27:31;14.27;;;4.57;;
22030;SDS011;11179;52.106;21.024;2023-05-10T06:29:56;11.27;;;4.30;;
22030;SDS011;11179;52.106;21.024;2023-05-10T06:32:22;9.03;;;4.23;;
22030;SDS011;11179;52.106;21.024;2023-05-10T06:34:47;10.20;;;3.83;;
22030;SDS011;11179;52.106;21.024;2023-05-10T06:37:12;9.63;;;3.73;;
22030;SDS011;11179;52.106;21.024;2023-05-10T06:39:38;8.60;;;3.93;;
22030;SDS011;11179;52.106;21.024;2023-05-10T06:42:03;8.07;;;4.97;;
22030;SDS011;11179;52.106;21.024;2023-05-10T06:44:29;11.43;;;3.57;;
22030;SDS011;11179;52.106;21.024;2023-05-10T06:46:55;6.10;;;3.00;;
22030;SDS011;11179;52.106;21.024;2023-05-10T06:49:20;9.30;;;3.33;;
22030;SDS011;11179;52.106;21.024;2023-05-10T06:51:46;8.43;;;3.50;;
22030;SDS011;11179;52.106;21.024;2023-05-10T06:54:11;7.67;;;3.30;;
22030;SDS011;11179;52.106;21.024;2023-05-10T06:56:37;8.80;;;3.07;;
22030;SDS011;11179;52.106;21.024;2023-05-10T06:59:02;8.70;;;3.07;;
22030;SDS011;11179;52.106;21.024;2023-05-10T07:01:27;10.13;;;3.60;;
22030;SDS011;11179;52.106;21.024;2023-05-10T07:03:53;8.60;;;3.00;;
22030;SDS011;11179;52.106;21.024;2023-05-10T07:06:18;6.50;;;3.10;;
22030;SDS011;11179;52.106;21.024;2023-05-10T07:08:44;7.70;;;3.23;;
22030;SDS011;11179;52.106;21.024;2023-05-10T07:11:09;7.63;;;3.50;;
22030;SDS011;11179;52.106;21.024;2023-05-10T07:13:37;6.20;;;2.90;;
22030;SDS011;11179;52.106;21.024;2023-05-10T07:16:06;13.90;;;3.67;;
22030;SDS011;11179;52.106;21.024;2023-05-10T07:18:33;10.60;;;2.90;;
22030;SDS011;11179;52.106;21.024;2023-05-10T07:20:58;6.90;;;3.20;;
22030;SDS011;11179;52.106;21.024;2023-05-10T07:23:23;6.33;;;2.70;;
22030;SDS011;11179;52.106;21.024;2023-05-10T07:25:49;8.07;;;3.43;;
22030;SDS011;11179;52.106;21.024;2023-05-10T07:28:19;5.03;;;2.50;;
22030;SDS011;11179;52.106;21.024;2023-05-10T07:30:45;7.00;;;2.83;;
22030;SDS011;11179;52.106;21.024;2023-05-10T07:33:12;7.17;;;3.50;;
22030;SDS011;11179;52.106;21.024;2023-05-10T07:35:39;7.43;;;3.10;;
22030;SDS011;11179;52.106;21.024;2023-05-10T07:38:04;7.70;;;3.00;;
22030;SDS011;11179;52.106;21.024;2023-05-10T07:40:29;9.53;;;2.50;;
22030;SDS011;11179;52.106;21.024;2023-05-10T07:42:55;10.80;;;2.77;;
22030;SDS011;11179;52.106;21.024;2023-05-10T07:45:20;5.70;;;2.63;;
22030;SDS011;11179;52.106;21.024;2023-05-10T07:47:46;11.50;;;3.10;;
22030;SDS011;11179;52.106;21.024;2023-05-10T07:50:11;12.43;;;4.53;;
22030;SDS011;11179;52.106;21.024;2023-05-10T07:52:37;6.10;;;2.50;;
22030;SDS011;11179;52.106;21.024;2023-05-10T07:55:02;8.67;;;3.87;;
22030;SDS011;11179;52.106;21.024;2023-05-10T07:57:28;8.03;;;2.77;;
22030;SDS011;11179;52.106;21.024;2023-05-10T07:59:53;9.53;;;2.77;;
22030;SDS011;11179;52.106;21.024;2023-05-10T08:02:18;9.20;;;2.67;;
22030;SDS011;11179;52.106;21.024;2023-05-10T08:04:44;27.57;;;3.40;;
22030;SDS011;11179;52.106;21.024;2023-05-10T08:07:09;12.50;;;2.87;;
22030;SDS011;11179;52.106;21.024;2023-05-10T08:09:35;10.93;;;2.23;;
22030;SDS011;11179;52.106;21.024;2023-05-10T08:12:00;8.53;;;2.30;;
22030;SDS011;11179;52.106;21.024;2023-05-10T08:14:27;13.50;;;3.03;;
22030;SDS011;11179;52.106;21.024;2023-05-10T08:16:53;5.30;;;2.50;;
22030;SDS011;11179;52.106;21.024;2023-05-10T08:19:19;8.87;;;2.53;;
22030;SDS011;11179;52.106;21.024;2023-05-10T08:21:46;8.37;;;2.80;;
22030;SDS011;11179;52.106;21.024;2023-05-10T08:24:12;6.13;;;2.03;;
22030;SDS011;11179;52.106;21.024;2023-05-10T08:26:37;8.10;;;2.87;;
22030;SDS011;11179;52.106;21.024;2023-05-10T08:29:03;7.93;;;3.03;;
22030;SDS011;11179;52.106;21.024;2023-05-10T08:31:28;9.90;;;2.90;;
22030;SDS011;11179;52.106;21.024;2023-05-10T08:33:53;10.30;;;3.10;;
22030;SDS011;11179;52.106;21.024;2023-05-10T08:36:19;17.23;;;3.53;;
22030;SDS011;11179;52.106;21.024;2023-05-10T08:38:46;9.00;;;3.17;;
22030;SDS011;11179;52.106;21.024;2023-05-10T08:41:15;6.67;;;2.53;;
22030;SDS011;11179;52.106;21.024;2023-05-10T08:43:40;13.83;;;2.90;;
22030;SDS011;11179;52.106;21.024;2023-05-10T08:46:11;5.03;;;2.03;;
22030;SDS011;11179;52.106;21.024;2023-05-10T08:48:42;4.90;;;2.13;;
22030;SDS011;11179;52.106;21.024;2023-05-10T08:51:08;6.70;;;2.80;;
22030;SDS011;11179;52.106;21.024;2023-05-10T08:53:35;11.70;;;3.83;;
22030;SDS011;11179;52.106;21.024;2023-05-10T08:56:02;6.80;;;3.20;;
22030;SDS011;11179;52.106;21.024;2023-05-10T08:58:28;6.90;;;2.53;;
22030;SDS011;11179;52.106;21.024;2023-05-10T09:00:53;10.60;;;2.97;;
22030;SDS011;11179;52.106;21.024;2023-05-10T09:03:20;8.77;;;2.40;;
22030;SDS011;11179;52.106;21.024;2023-05-10T09:05:45;13.03;;;3.80;;
22030;SDS011;11179;52.106;21.024;2023-05-10T09:08:11;8.63;;;3.10;;
22030;SDS011;11179;52.106;21.024;2023-05-10T09:10:38;7.40;;;3.47;;
22030;SDS011;11179;52.106;21.024;2023-05-10T09:13:04;9.90;;;2.93;;
22030;SDS011;11179;52.106;21.024;2023-05-10T09:15:30;9.90;;;2.53;;
22030;SDS011;11179;52.106;21.024;2023-05-10T09:17:56;6.50;;;2.80;;
22030;SDS011;11179;52.106;21.024;2023-05-10T09:20:23;6.87;;;3.23;;
22030;SDS011;11179;52.106;21.024;2023-05-10T09:22:49;10.93;;;2.60;;
22030;SDS011;11179;52.106;21.024;2023-05-10T09:25:15;9.87;;;3.10;;
22030;SDS011;11179;52.106;21.024;2023-05-10T09:27:43;9.40;;;2.90;;
22030;SDS011;11179;52.106;21.024;2023-05-10T09:30:10;7.70;;;3.70;;
22030;SDS011;11179;52.106;21.024;2023-05-10T09:37:34;6.47;;;2.90;;
22030;SDS011;11179;52.106;21.024;2023-05-10T09:39:59;15.87;;;3.70;;
22030;SDS011;11179;52.106;21.024;2023-05-10T09:42:24;5.90;;;2.40;;
22030;SDS011;11179;52.106;21.024;2023-05-10T09:44:50;8.13;;;3.23;;
22030;SDS011;11179;52.106;21.024;2023-05-10T09:47:18;14.10;;;2.80;;
22030;SDS011;11179;52.106;21.024;2023-05-10T09:49:44;8.90;;;3.07;;
22030;SDS011;11179;52.106;21.024;2023-05-10T09:52:14;16.93;;;3.30;;
22030;SDS011;11179;52.106;21.024;2023-05-10T09:54:42;13.30;;;3.00;;
22030;SDS011;11179;52.106;21.024;2023-05-10T09:57:23;8.47;;;2.93;;
22030;SDS011;11179;52.106;21.024;2023-05-10T09:59:49;7.23;;;3.57;;
22030;SDS011;11179;52.106;21.024;2023-05-10T10:02:15;8.63;;;3.57;;
22030;SDS011;11179;52.106;21.024;2023-05-10T10:04:42;10.77;;;2.77;;
22030;SDS011;11179;52.106;21.024;2023-05-10T10:07:08;9.23;;;3.00;;
22030;SDS011;11179;52.106;21.024;2023-05-10T10:09:34;9.63;;;2.80;;
22030;SDS011;11179;52.106;21.024;2023-05-10T10:12:03;6.70;;;2.53;;
22030;SDS011;11179;52.106;21.024;2023-05-10T10:14:29;8.40;;;3.00;;
22030;SDS011;11179;52.106;21.024;2023-05-10T10:16:55;8.83;;;2.63;;
22030;SDS011;11179;52.106;21.024;2023-05-10T10:19:21;8.83;;;3.23;;
22030;SDS011;11179;52.106;21.024;2023-05-10T10:21:47;6.10;;;2.70;;
22030;SDS011;11179;52.106;21.024;2023-05-10T10:24:14;7.10;;;2.80;;
22030;SDS011;11179;52.106;21.024;2023-05-10T10:26:40;6.80;;;2.60;;
22030;SDS011;11179;52.106;21.024;2023-05-10T10:32:06;8.87;;;3.10;;
22030;SDS011;11179;52.106;21.024;2023-05-10T10:34:38;8.03;;;3.23;;
22030;SDS011;11179;52.106;21.024;2023-05-10T10:37:04;7.50;;;2.90;;
22030;SDS011;11179;52.106;21.024;2023-05-10T10:39:31;6.27;;;2.90;;
22030;SDS011;11179;52.106;21.024;2023-05-10T10:41:57;6.33;;;3.00;;
22030;SDS011;11179;52.106;21.024;2023-05-10T10:50:21;8.60;;;2.40;;
22030;SDS011;11179;52.106;21.024;2023-05-10T10:52:26;5.80;;;2.40;;
22030;SDS011;11179;52.106;21.024;2023-05-10T10:55:17;7.10;;;2.90;;
22030;SDS011;11179;52.106;21.024;2023-05-10T10:57:48;7.10;;;2.70;;
22030;SDS011;11179;52.106;21.024;2023-05-10T11:00:20;8.00;;;2.70;;
22030;SDS011;11179;52.106;21.024;2023-05-10T11:02:51;11.73;;;3.57;;
22030;SDS011;11179;52.106;21.024;2023-05-10T11:05:24;7.30;;;2.57;;
22030;SDS011;11179;52.106;21.024;2023-05-10T11:16:11;9.70;;;2.73;;
22030;SDS011;11179;52.106;21.024;2023-05-10T11:18:53;6.63;;;2.30;;
22030;SDS011;11179;52.106;21.024;2023-05-10T11:21:31;7.10;;;2.57;;
22030;SDS011;11179;52.106;21.024;2023-05-10T11:23:58;6.00;;;2.77;;
22030;SDS011;11179;52.106;21.024;2023-05-10T11:26:25;7.53;;;2.57;;
22030;SDS011;11179;52.106;21.024;2023-05-10T11:28:55;6.50;;;2.70;;
22030;SDS011;11179;52.106;21.024;2023-05-10T11:31:21;11.00;;;3.30;;
22030;SDS011;11179;52.106;21.024;2023-05-10T11:33:50;8.87;;;3.27;;
22030;SDS011;11179;52.106;21.024;2023-05-10T11:36:18;7.27;;;2.90;;
22030;SDS011;11179;52.106;21.024;2023-05-10T11:38:50;7.70;;;3.20;;
22030;SDS011;11179;52.106;21.024;2023-05-10T11:41:16;7.77;;;3.50;;
22030;SDS011;11179;52.106;21.024;2023-05-10T11:43:43;8.10;;;2.90;;
22030;SDS011;11179;52.106;21.024;2023-05-10T11:46:12;7.47;;;3.03;;
22030;SDS011;11179;52.106;21.024;2023-05-10T11:48:38;11.60;;;4.63;;
22030;SDS011;11179;52.106;21.024;2023-05-10T11:51:05;8.00;;;3.07;;
22030;SDS011;11179;52.106;21.024;2023-05-10T11:53:32;7.70;;;2.70;;
22030;SDS011;11179;52.106;21.024;2023-05-10T11:56:07;9.20;;;2.87;;
22030;SDS011;11179;52.106;21.024;2023-05-10T11:58:34;6.80;;;2.47;;
22030;SDS011;11179;52.106;21.024;2023-05-10T12:01:00;8.47;;;2.87;;
22030;SDS011;11179;52.106;21.024;2023-05-10T12:03:27;10.10;;;2.70;;
22030;SDS011;11179;52.106;21.024;2023-05-10T12:05:53;10.13;;;3.00;;
22030;SDS011;11179;52.106;21.024;2023-05-10T12:08:23;7.30;;;2.33;;
22030;SDS011;11179;52.106;21.024;2023-05-10T12:11:05;7.33;;;3.00;;
22030;SDS011;11179;52.106;21.024;2023-05-10T12:13:32;8.67;;;3.40;;
22030;SDS011;11179;52.106;21.024;2023-05-10T12:16:12;13.17;;;4.50;;
22030;SDS011;11179;52.106;21.024;2023-05-10T12:18:38;8.90;;;3.27;;
22030;SDS011;11179;52.106;21.024;2023-05-10T12:21:05;9.73;;;2.70;;
22030;SDS011;11179;52.106;21.024;2023-05-10T12:23:30;8.97;;;2.97;;
22030;SDS011;11179;52.106;21.024;2023-05-10T12:26:01;7.60;;;2.73;;
22030;SDS011;11179;52.106;21.024;2023-05-10T12:28:30;11.07;;;2.20;;
22030;SDS011;11179;52.106;21.024;2023-05-10T12:30:57;15.37;;;3.17;;
22030;SDS011;11179;52.106;21.024;2023-05-10T12:33:22;7.23;;;2.70;;
22030;SDS011;11179;52.106;21.024;2023-05-10T12:35:49;8.47;;;2.70;;
22030;SDS011;11179;52.106;21.024;2023-05-10T12:40:50;6.60;;;2.40;;
22030;SDS011;11179;52.106;21.024;2023-05-10T12:43:15;13.70;;;2.90;;
22030;SDS011;11179;52.106;21.024;2023-05-10T12:45:41;6.77;;;2.73;;
22030;SDS011;11179;52.106;21.024;2023-05-10T12:48:06;11.97;;;2.90;;
22030;SDS011;11179;52.106;21.024;2023-05-10T12:50:31;7.30;;;2.77;;
22030;SDS011;11179;52.106;21.024;2023-05-10T12:52:57;10.53;;;3.37;;
22030;SDS011;11179;52.106;21.024;2023-05-10T12:55:22;7.10;;;2.97;;
22030;SDS011;11179;52.106;21.024;2023-05-10T12:57:47;5.57;;;2.17;;
22030;SDS011;11179;52.106;21.024;2023-05-10T13:00:13;6.23;;;2.30;;
22030;SDS011;11179;52.106;21.024;2023-05-10T13:02:39;9.83;;;3.00;;
22030;SDS011;11179;52.106;21.024;2023-05-10T13:05:04;6.83;;;3.33;;
22030;SDS011;11179;52.106;21.024;2023-05-10T13:07:30;6.80;;;2.83;;
22030;SDS011;11179;52.106;21.024;2023-05-10T13:09:55;8.90;;;3.00;;
22030;SDS011;11179;52.106;21.024;2023-05-10T13:12:21;6.13;;;2.17;;
22030;SDS011;11179;52.106;21.024;2023-05-10T13:14:46;9.13;;;2.70;;
22030;SDS011;11179;52.106;21.024;2023-05-10T13:17:11;7.77;;;2.60;;
22030;SDS011;11179;52.106;21.024;2023-05-10T13:19:37;6.20;;;2.30;;
22030;SDS011;11179;52.106;21.024;2023-05-10T13:22:02;9.17;;;2.63;;
22030;SDS011;11179;52.106;21.024;2023-05-10T13:24:27;5.60;;;2.60;;
22030;SDS011;11179;52.106;21.024;2023-05-10T13:26:53;5.30;;;2.20;;
22030;SDS011;11179;52.106;21.024;2023-05-10T13:29:18;14.33;;;3.00;;
22030;SDS011;11179;52.106;21.024;2023-05-10T13:31:44;7.07;;;2.03;;
22030;SDS011;11179;52.106;21.024;2023-05-10T13:34:09;6.70;;;2.13;;
22030;SDS011;11179;52.106;21.024;2023-05-10T13:36:34;7.20;;;2.87;;
22030;SDS011;11179;52.106;21.024;2023-05-10T13:39:00;7.90;;;3.07;;
22030;SDS011;11179;52.106;21.024;2023-05-10T13:41:27;8.97;;;2.60;;
22030;SDS011;11179;52.106;21.024;2023-05-10T13:43:52;7.20;;;2.30;;
22030;SDS011;11179;52.106;21.024;2023-05-10T13:46:18;7.43;;;3.00;;
22030;SDS011;11179;52.106;21.024;2023-05-10T13:48:44;8.03;;;2.80;;
22030;SDS011;11179;52.106;21.024;2023-05-10T13:51:09;9.77;;;3.30;;
22030;SDS011;11179;52.106;21.024;2023-05-10T13:53:34;7.00;;;3.10;;
22030;SDS011;11179;52.106;21.024;2023-05-10T13:56:00;13.03;;;5.10;;
22030;SDS011;11179;52.106;21.024;2023-05-10T13:58:25;9.50;;;4.77;;
22030;SDS011;11179;52.106;21.024;2023-05-10T14:00:50;15.83;;;4.00;;
22030;SDS011;11179;52.106;21.024;2023-05-10T14:03:16;13.73;;;3.40;;
22030;SDS011;11179;52.106;21.024;2023-05-10T14:05:41;7.80;;;2.70;;
22030;SDS011;11179;52.106;21.024;2023-05-10T14:08:07;15.00;;;4.50;;
22030;SDS011;11179;52.106;21.024;2023-05-10T14:10:34;11.33;;;3.10;;
22030;SDS011;11179;52.106;21.024;2023-05-10T14:12:59;7.93;;;2.80;;
22030;SDS011;11179;52.106;21.024;2023-05-10T14:15:25;7.77;;;2.77;;
22030;SDS011;11179;52.106;21.024;2023-05-10T14:17:50;10.90;;;3.43;;
22030;SDS011;11179;52.106;21.024;2023-05-10T14:20:16;8.73;;;3.30;;
22030;SDS011;11179;52.106;21.024;2023-05-10T14:22:41;7.70;;;3.50;;
22030;SDS011;11179;52.106;21.024;2023-05-10T14:25:07;16.67;;;2.13;;
22030;SDS011;11179;52.106;21.024;2023-05-10T14:27:33;8.00;;;3.17;;
22030;SDS011;11179;52.106;21.024;2023-05-10T14:29:58;10.97;;;3.70;;
22030;SDS011;11179;52.106;21.024;2023-05-10T14:32:24;17.47;;;4.20;;
22030;SDS011;11179;52.106;21.024;2023-05-10T14:34:49;12.13;;;3.67;;
22030;SDS011;11179;52.106;21.024;2023-05-10T14:37:15;7.43;;;2.77;;
22030;SDS011;11179;52.106;21.024;2023-05-10T14:39:40;7.40;;;2.90;;
22030;SDS011;11179;52.106;21.024;2023-05-10T14:42:07;9.10;;;3.07;;
22030;SDS011;11179;52.106;21.024;2023-05-10T14:44:32;5.80;;;2.50;;
22030;SDS011;11179;52.106;21.024;2023-05-10T14:46:58;6.67;;;2.77;;
22030;SDS011;11179;52.106;21.024;2023-05-10T14:49:23;9.80;;;2.90;;
22030;SDS011;11179;52.106;21.024;2023-05-10T14:51:50;8.23;;;2.57;;
22030;SDS011;11179;52.106;21.024;2023-05-10T14:54:16;7.63;;;2.80;;
22030;SDS011;11179;52.106;21.024;2023-05-10T14:56:41;5.90;;;2.60;;
22030;SDS011;11179;52.106;21.024;2023-05-10T14:59:07;7.27;;;2.23;;
22030;SDS011;11179;52.106;21.024;2023-05-10T15:01:33;7.67;;;3.03;;
22030;SDS011;11179;52.106;21.024;2023-05-10T15:04:02;6.60;;;2.73;;
22030;SDS011;11179;52.106;21.024;2023-05-10T15:06:31;5.53;;;2.77;;
22030;SDS011;11179;52.106;21.024;2023-05-10T15:08:56;5.43;;;2.60;;
22030;SDS011;11179;52.106;21.024;2023-05-10T15:11:22;6.57;;;3.20;;
22030;SDS011;11179;52.106;21.024;2023-05-10T15:13:47;9.83;;;3.17;;
22030;SDS011;11179;52.106;21.024;2023-05-10T15:16:13;8.70;;;2.80;;